Ausable Chasm, NY

12:42 AM EST on January 31, 2015 (GMT -0500)
Burlington International | Change Station
CLOSE
Current Station
Airport
Location: Burlington,
Elevation: 341 ft
Nearby Weather Stations
Active Advisory: Wind Chill Advisory Active Notice: Public Information Statement

Elev 341 ft 44.47 °N, 73.15 °W | Updated 48 minutes ago

Partly Cloudy
Partly Cloudy
5 °F
Feels Like -12 °F
N
14
Wind Variable Wind from North

Today
High -- | Low -- °F
--% Chance of Precip.
Yesterday
High -- | Low -- °F
Precip. -- in
7:14 AM 5:01 PM
Waxing Gibbous, 87% visible
Pressure 30.14 in
Visibility 10.0 miles
Clouds Mostly Cloudy 3500 ft
Windchill -12 °F
Dew Point -4 °F
Humidity 66%
Rainfall 0.16 in
Snow Depth Not available.
UV 0 out of 12
Pollen .10 out of 12
Air Quality Not available.
Flu Activity Not available.
METAR KBTV 310454Z 35012KT 10SM BKN035 M15/M20 A3011 RMK AO2 SNE38 SLP204 BLSN P0000 T11501200 410171150

More Conditions Fewer Conditions

Pressure 30.14 in
Visibility 10.0 miles
Clouds Mostly Cloudy 3500 ft
Windchill -12 °F
Dew Point -4 °F
Humidity 66%
Rainfall 0.16 in
Snow Depth Not available.
UV 0 out of 12
Pollen .10 out of 12
Air Quality Not available.
Flu Activity Not available.
METAR KBTV 310454Z 35012KT 10SM BKN035 M15/M20 A3011 RMK AO2 SNE38 SLP204 BLSN P0000 T11501200 410171150

More Conditions Fewer Conditions

10-Day Weather Forecast

Almanac

Astronomy

Jan. 31, 2015 Rise Set
Actual Time
Civil Twilight
Nautical Twilight
Astronomical Twilight
Moon
Length of Visible Light
Length of Day
Tomorrow will be .
, % of the Moon is Illuminated

Today's Extremes

State Highs State Lows

Community

WunderPhotos

Upload Photos

1,792,005 photos uploaded!

WunderBlogs® & News

Nearby

Air Quality

  Air Quality AQ Index Pollutant
Not available.

Snow Depth

Station Depth Elevation

Earthquake Activity

City Distance Mag. Time & Date
Minimum magnitude displayed is 2.5.

Coastal Water Temperatures

Place Temperature

Nearby Weather Stations